Flight Track Log - Related Links

Times and Time Zones

All times are in EDT time to prevent confusion due to time zone crossing. See the ASQ4252 flight status page for this flight to view local times or setup timezone preferences in your user account.

Time Position Orientation Groundspeed Altitude Reporting Facility
EDT Latitude Longitude Course Direction KTS MPH feet Rate Location/Type
Tue 11:08:13 AM 36.1794 -94.2964 178° South 207 238 4,800  Level Kansas City Center
Tue 11:09:15 AM 36.1644 -94.3658 255° West 231 266 7,000 2,081 Climbing Kansas City Center
Tue 11:10:17 AM 36.1889 -94.4408 292° West 246 283 9,100 1,694 Climbing Kansas City Center
Tue 11:11:00 AM 36.8408 -94.4172 60° Northeast  Level FlightAware Approximate
Tue 11:11:19 AM 36.2536 -94.4994 324° Northwest 275 316 10,500  Level Kansas City Center
Tue 11:12:00 AM 36.8834 -94.3251 60° Northeast  Level FlightAware Approximate
Tue 11:12:21 AM 36.3436 -94.5206 349° North 321 369 11,900  Level Kansas City Center
Tue 11:13:23 AM 36.4606 -94.5031 North 353 406 14,000 1,790 Climbing Kansas City Center
Tue 11:14:25 AM 36.5583 -94.4847 North 355 409 15,600 1,500 Climbing Kansas City Center
Tue 11:15:27 AM 36.6597 -94.4669 North 362 417 17,100 1,403 Climbing Kansas City Center
Tue 11:16:29 AM 36.7406 -94.3828 40° Northeast 384 442 18,500 1,210 Climbing Kansas City Center
Tue 11:17:31 AM 36.8053 -94.2706 54° Northeast 395 455 19,600 1,403 Climbing Kansas City Center
Tue 11:18:33 AM 36.8722 -94.1581 53° Northeast 402 463 21,400 1,984 Climbing Kansas City Center
Tue 11:19:35 AM 36.9506 -94.0283 53° Northeast 392 451 23,700 1,839 Climbing Kansas City Center
Tue 11:20:37 AM 37.0133 -93.9225 53° Northeast 383 441 25,200 1,355 Climbing Kansas City Center
Tue 11:21:39 AM 37.0761 -93.8167 53° Northeast 380 437 26,500 1,258 Climbing Kansas City Center
Tue 11:22:41 AM 37.1375 -93.7078 55° Northeast 382 440 27,800 1,306 Climbing Kansas City Center
Tue 11:23:43 AM 37.2003 -93.5972 54° Northeast 386 444 29,200 1,392 Climbing Kansas City Center
Tue 11:24:46 AM 37.2639 -93.4878 54° Northeast 387 445 30,700 1,584 Climbing Kansas City Center
Tue 11:25:48 AM 37.3408 -93.3597 53° Northeast 385 443 32,500 1,548 Climbing Kansas City Center
Tue 11:26:50 AM 37.4167 -93.2778 41° Northeast 362 417 33,900 1,210 Climbing Kansas City Center
Tue 11:27:52 AM 37.4981 -93.2017 37° Northeast 361 415 35,000 532 Climbing Kansas City Center
Tue 11:28:54 AM 37.5806 -93.1247 36° Northeast 363 418 35,000  Level Kansas City Center
Tue 11:29:56 AM 37.6739 -93.0375 36° Northeast 396 456 35,000  Level Kansas City Center
Tue 11:30:58 AM 37.7711 -92.9486 36° Northeast 424 488 35,000  Level Kansas City Center
Tue 11:32:00 AM 37.8722 -92.8544 36° Northeast 443 510 35,000  Level Kansas City Center
Tue 11:33:02 AM 37.9914 -92.7428 36° Northeast 442 509 35,000  Level Kansas City Center
Tue 11:34:04 AM 38.0819 -92.6575 37° Northeast 442 509 35,000  Level Kansas City Center
Tue 11:35:06 AM 38.1933 -92.5539 36° Northeast 445 512 35,000  Level Kansas City Center
Tue 11:36:08 AM 38.2953 -92.4581 36° Northeast 448 516 35,000  Level Kansas City Center
Tue 11:37:10 AM 38.3958 -92.3603 37° Northeast 450 518 35,000  Level Kansas City Center
Tue 11:38:12 AM 38.4972 -92.2639 37° Northeast 451 519 35,000  Level Kansas City Center
Tue 11:39:14 AM 38.5978 -92.1664 37° Northeast 451 519 35,000  Level Kansas City Center
Tue 11:40:16 AM 38.6992 -92.0692 37° Northeast 452 520 35,000  Level Kansas City Center
Tue 11:41:18 AM 38.7997 -91.9731 37° Northeast 450 518 35,000  Level Kansas City Center
Tue 11:42:20 AM 38.9208 -91.8558 37° Northeast 452 520 35,000  Level Kansas City Center
Tue 11:43:22 AM 39.0222 -91.7572 37° Northeast 454 522 35,000  Level Kansas City Center
Tue 11:44:24 AM 39.1314 -91.6517 37° Northeast 463 533 35,000  Level Kansas City Center
Tue 11:45:26 AM 39.2344 -91.5494 38° Northeast 466 536 35,000  Level Kansas City Center
Tue 11:46:28 AM 39.3406 -91.4461 37° Northeast 470 541 35,000  Level Kansas City Center
Tue 11:47:30 AM 39.4458 -91.3419 37° Northeast 474 545 35,000  Level Kansas City Center
Tue 11:48:32 AM 39.5517 -91.2386 37° Northeast 476 548 35,000  Level Kansas City Center
Tue 11:49:34 AM 39.6575 -91.1319 38° Northeast 477 549 35,000 -339 Level Kansas City Center
Tue 11:50:36 AM 39.7750 -91.0147 37° Northeast 472 543 34,300 -1,016 Descending Kansas City Center
Tue 11:51:38 AM 39.8767 -90.9122 38° Northeast 473 544 32,900 -1,403 Descending Kansas City Center
Tue 11:52:40 AM 39.9819 -90.8067 38° Northeast 476 548 31,400 -1,452 Descending Kansas City Center
Tue 11:53:42 AM 40.0875 -90.6986 38° Northeast 479 551 29,900 -1,161 Descending Kansas City Center
Tue 11:54:44 AM 40.2156 -90.5694 38° Northeast 483 556 29,000 -435 Descending Kansas City Center
Tue 11:55:46 AM 40.3156 -90.4672 38° Northeast 464 534 29,000  Level Kansas City Center
Tue 11:56:43 AM 40.3958 -90.3850 38° Northeast 459 528 29,000  Level Chicago Center
Tue 11:57:45 AM 40.5197 -90.2578 38° Northeast 467 537 29,000  Level Chicago Center
Tue 11:58:47 AM 40.6150 -90.1583 38° Northeast 469 540 29,000  Level Chicago Center
Tue 11:59:49 AM 40.7194 -90.0517 38° Northeast 476 548 29,000  Level Chicago Center
Tue 12:00:51 PM 40.8456 -89.9222 38° Northeast 480 552 29,000 -339 Level Chicago Center
Tue 12:01:53 PM 40.9464 -89.8133 39° Northeast 474 545 28,300 -1,452 Descending Chicago Center
Tue 12:02:55 PM 41.0439 -89.7117 38° Northeast 466 536 26,000 -2,160 Descending Chicago Center
Tue 12:03:58 PM 41.1464 -89.6008 39° Northeast 472 543 23,800 -2,160 Descending Chicago Center
Tue 12:05:00 PM 41.2161 -89.4519 58° Northeast 480 552 21,500 -2,274 Descending Chicago Center
Tue 12:06:02 PM 41.2756 -89.3039 62° Northeast 461 531 19,100 -2,565 Descending Chicago Center
Tue 12:07:04 PM 41.3383 -89.1414 63° Northeast 415 478 16,200 -2,468 Descending Chicago Center
Tue 12:08:06 PM 41.3925 -89.0086 61° Northeast 410 472 14,000 -2,129 Descending Chicago Center
Tue 12:09:08 PM 41.4456 -88.8750 62° Northeast 411 473 11,800 -1,452 Descending Chicago Center
Tue 12:10:10 PM 41.4947 -88.7506 62° Northeast 388 447 11,000 -339 Descending Chicago Center
Tue 12:11:12 PM 41.5364 -88.6450 62° Northeast 326 375 11,100 48 Climbing Chicago Center
Tue 12:12:14 PM 41.5794 -88.5161 66° East 317 365 11,100 -823 Level Chicago Center
Tue 12:13:16 PM 41.6064 -88.4056 72° East 313 360 9,400 -1,500 Descending Chicago Center
Tue 12:14:18 PM 41.6333 -88.2994 71° East 304 350 8,000 -871 Descending Chicago Center
Tue 12:15:20 PM 41.6783 -88.2133 55° Northeast 290 334 7,600 -919 Descending Chicago Center
Tue 12:16:22 PM 41.7411 -88.1522 36° Northeast 277 319 6,100 -1,344 Descending Chicago Center
Tue 12:17:25 PM 41.7931 -88.0872 43° Northeast 264 304 4,800 -1,238 Descending Chicago Center

Login

Don't have an account? Register now (free) for customized features, flight alerts, and more!